• Join FlightAware (Why Join?)
  • Login
  • US Flag 
08:53PM EST


 

Airport Tracker/Info


-or-


 

Live Flight TrackerFlight Track Log ✈ DAL6055 ✈ 08-Apr-2013 ✈ KDTW - KSDF

Flight Track Log - Related Links

Times and Time Zones

All times are in EDT time to prevent confusion due to time zone crossing. See the DAL6055 flight status page for this flight to view local times or setup timezone preferences in your user account.

Time Position Orientation Groundspeed Altitude Reporting Facility
EDT Latitude Longitude Course Direction KTS MPH feet Rate Location/Type
09:22AM 42.2008 -83.3553 199° South 162 186 1,300  Level FAA TRACON SMA TRACON (SMA)
09:23AM 42.1856 -83.3622 199° South 170 196 2,100 1,800 Climbing FAA TRACON SMA TRACON (SMA)
09:23AM 42.1711 -83.3700 202° Southwest 190 219 2,500 1,680 Climbing FAA TRACON SMA TRACON (SMA)
09:23AM 42.1528 -83.3792 200° South 208 239 3,200 2,100 Climbing FAA TRACON SMA TRACON (SMA)
09:24AM 42.1322 -83.3878 197° South 219 252 3,900 2,040 Climbing FAA TRACON SMA TRACON (SMA)
09:24AM 42.1133 -83.3942 194° South 226 260 4,600 2,220 Climbing FAA TRACON SMA TRACON (SMA)
09:24AM 42.0914 -83.4014 194° South 230 265 5,400 2,400 Climbing FAA TRACON SMA TRACON (SMA)
09:25AM 42.0725 -83.4075 194° South 235 270 6,200 2,460 Climbing FAA TRACON SMA TRACON (SMA)
09:25AM 42.0489 -83.4153 194° South 240 276 7,000 2,220 Climbing FAA TRACON SMA TRACON (SMA)
09:25AM 42.0292 -83.4217 194° South 246 283 7,700 2,460 Climbing FAA TRACON SMA TRACON (SMA)
09:26AM 42.0047 -83.4294 193° South 243 280 8,700 2,700 Climbing FAA TRACON SMA TRACON (SMA)
09:26AM 41.9814 -83.4336 188° South 247 284 9,500 2,100 Climbing FAA TRACON SMA TRACON (SMA)
09:26AM 41.9594 -83.4294 172° South 259 298 10,100 1,500 Climbing FAA TRACON SMA TRACON (SMA)
09:27AM 41.9372 -83.4214 165° South 272 313 10,500 1,320 Climbing FAA TRACON SMA TRACON (SMA)
09:27AM 41.9078 -83.4136 169° South 280 322 11,000 1,320 Climbing FAA TRACON SMA TRACON (SMA)
09:27AM 41.8836 -83.4058 167° South 288 331 11,400 1,320 Climbing FAA TRACON SMA TRACON (SMA)
09:28AM 41.8583 -83.3981 167° South 295 339 11,900 1,320 Climbing FAA TRACON SMA TRACON (SMA)
09:28AM 41.8325 -83.3903 167° South 307 353 12,300 1,500 Climbing FAA TRACON SMA TRACON (SMA)
09:28AM 41.7997 -83.3803 167° South 312 359 12,900 1,500 Climbing FAA TRACON SMA TRACON (SMA)
09:29AM 41.7728 -83.3719 167° South 317 365 13,300 1,200 Climbing FAA TRACON SMA TRACON (SMA)
09:29AM 41.7458 -83.3636 167° South 322 371 13,700 1,500 Climbing FAA TRACON SMA TRACON (SMA)
09:29AM 41.7114 -83.3533 167° South 327 376 14,300 1,500 Climbing FAA TRACON SMA TRACON (SMA)
09:30AM 41.6833 -83.3450 167° South 332 382 14,700 1,320 Climbing FAA TRACON SMA TRACON (SMA)
09:30AM 41.6544 -83.3394 172° South 335 386 15,200 1,500 Climbing FAA TRACON SMA TRACON (SMA)
09:30AM 41.6183 -83.3392 180° South 338 389 15,700 1,320 Climbing FAA TRACON SMA TRACON (SMA)
09:31AM 41.5894 -83.3372 177° South 340 391 16,100 1,500 Climbing FAA TRACON SMA TRACON (SMA)
09:31AM 41.5528 -83.3353 178° South 341 392 16,700 1,500 Climbing FAA TRACON SMA TRACON (SMA)
09:31AM 41.5239 -83.3381 184° South 336 387 17,100 1,200 Climbing FAA TRACON SMA TRACON (SMA)
09:32AM 41.4967 -83.3514 200° South 334 384 17,500 1,440 Climbing FAA TRACON SMA TRACON (SMA)
09:32AM 41.4639 -83.3706 204° Southwest 334 384 18,100 1,500 Climbing FAA TRACON SMA TRACON (SMA)
09:32AM 41.4372 -83.3856 203° Southwest 336 387 18,500 1,380 Climbing FAA TRACON SMA TRACON (SMA)
09:33AM 41.4108 -83.4014 204° Southwest 337 388 19,000 1,500 Climbing FAA TRACON SMA TRACON (SMA)
09:33AM 41.3775 -83.4203 203° Southwest 338 389 19,500 1,320 Climbing FAA TRACON SMA TRACON (SMA)
09:33AM 41.3508 -83.4356 203° Southwest 338 389 19,900 900 Climbing FAA TRACON SMA TRACON (SMA)
09:34AM 41.3375 -83.4433 204° Southwest 339 390 20,100 1,200 Climbing FAA TRACON SMA TRACON (SMA)
09:34AM 41.2644 -83.4867 204° Southwest 346 398 21,200 1,200 Climbing Cleveland Center
09:36AM 41.0792 -83.5922 203° Southwest 353 406 23,500 1,020 Climbing Indianapolis Center
09:37AM 40.9892 -83.6436 203° Southwest 365 420 24,400 900 Climbing Indianapolis Center
09:39AM 40.8928 -83.7000 204° Southwest 372 428 25,400 720 Climbing Indianapolis Center
09:40AM 40.7961 -83.7533 203° Southwest 374 430 26,000 240 Climbing Indianapolis Center
09:41AM 40.6786 -83.8219 204° Southwest 388 447 26,000  Level Indianapolis Center
09:42AM 40.5728 -83.8822 203° Southwest 407 468 26,000  Level Indianapolis Center
09:43AM 40.4669 -83.9433 204° Southwest 413 475 26,000  Level Indianapolis Center
09:44AM 40.3597 -84.0019 203° Southwest 414 476 26,000  Level Indianapolis Center
09:45AM 40.2542 -84.0614 203° Southwest 412 474 26,000  Level Indianapolis Center
09:46AM 40.1464 -84.1181 202° Southwest 415 478 26,000  Level Indianapolis Center
09:47AM 40.0194 -84.1847 202° Southwest 420 483 26,000  Level Indianapolis Center
09:48AM 39.9103 -84.2417 202° Southwest 423 487 26,000 -300 Level Indianapolis Center
09:49AM 39.8019 -84.2989 202° Southwest 420 483 25,400 -900 Descending Indianapolis Center
09:50AM 39.6964 -84.3528 201° Southwest 410 472 24,200 -1,140 Descending Indianapolis Center
09:51AM 39.5911 -84.4075 202° Southwest 406 467 23,100 -1,080 Descending Indianapolis Center
09:52AM 39.4864 -84.4619 202° Southwest 402 463 22,000 -1,260 Descending Indianapolis Center
09:53AM 39.3631 -84.5253 202° Southwest 405 466 20,600 -1,320 Descending Indianapolis Center
09:54AM 39.2622 -84.5781 202° Southwest 393 452 19,300 -1,320 Descending Indianapolis Center
09:55AM 39.1622 -84.6292 202° Southwest 386 444 17,900 -1,320 Descending Indianapolis Center
09:56AM 39.0664 -84.6764 201° Southwest 369 425 16,600 -1,320 Descending Indianapolis Center
09:57AM 39.0167 -84.7000 200° South 355 409 15,800 -1,380 Descending Cincinnati TRACON
09:58AM 38.9167 -84.7833 213° Southwest 329 379 14,200 -840 Descending Cincinnati TRACON
09:59AM 38.8333 -84.8667 218° Southwest 331 381 14,000 -180 Descending Cincinnati TRACON
09:59AM 38.8225 -84.8917 241° Southwest 332 382 14,000 -120 Level Indianapolis Center
10:00AM 38.7486 -84.9622 217° Southwest 330 380 13,900 -900 Descending Indianapolis Center
10:01AM 38.6744 -85.0347 217° Southwest 331 381 12,200 -960 Descending Indianapolis Center
10:02AM 38.6050 -85.1003 216° Southwest 330 380 12,000 -480 Descending Indianapolis Center
10:03AM 38.5211 -85.1822 217° Southwest 323 372 11,300 -780 Descending FAA TRACON SMA TRACON (SMA)
10:04AM 38.4986 -85.2025 215° Southwest 322 371 11,000 -900 Descending FAA TRACON SMA TRACON (SMA)
10:04AM 38.4767 -85.2233 217° Southwest 319 367 10,700 -1,200 Descending FAA TRACON SMA TRACON (SMA)
10:04AM 38.4567 -85.2550 231° Southwest 308 354 10,200 -1,080 Descending FAA TRACON SMA TRACON (SMA)
10:05AM 38.4525 -85.2856 260° West 294 338 10,000 -480 Descending FAA TRACON SMA TRACON (SMA)
10:05AM 38.4489 -85.3142 261° West 275 316 9,900 -1,080 Descending FAA TRACON SMA TRACON (SMA)
10:05AM 38.4450 -85.3472 261° West 252 290 9,300 -1,800 Descending FAA TRACON SMA TRACON (SMA)
10:06AM 38.4419 -85.3731 261° West 244 281 8,700 -1,800 Descending FAA TRACON SMA TRACON (SMA)
10:06AM 38.4386 -85.3994 261° West 243 280 8,100 -1,980 Descending FAA TRACON SMA TRACON (SMA)
10:06AM 38.4336 -85.4317 259° West 241 277 7,400 -1,800 Descending FAA TRACON SMA TRACON (SMA)
10:07AM 38.4272 -85.4564 252° West 240 276 6,900 -1,500 Descending FAA TRACON SMA TRACON (SMA)
10:07AM 38.4200 -85.4803 249° West 236 272 6,400 -1,860 Descending FAA TRACON SMA TRACON (SMA)
10:07AM 38.4108 -85.5092 248° West 231 266 5,700 -1,800 Descending FAA TRACON SMA TRACON (SMA)
10:08AM 38.4042 -85.5325 250° West 229 264 5,200 -1,500 Descending FAA TRACON SMA TRACON (SMA)
10:08AM 38.3978 -85.5558 251° West 227 261 4,700 -1,320 Descending FAA TRACON SMA TRACON (SMA)
10:08AM 38.3900 -85.5850 251° West 225 259 4,300 -1,080 Descending FAA TRACON SMA TRACON (SMA)
10:09AM 38.3839 -85.6069 250° West 217 250 4,000 -1,260 Descending FAA TRACON SMA TRACON (SMA)
10:09AM 38.3781 -85.6292 251° West 216 249 3,500 -1,500 Descending FAA TRACON SMA TRACON (SMA)
10:09AM 38.3708 -85.6561 251° West 210 242 3,000 -780 Descending FAA TRACON SMA TRACON (SMA)
10:10AM 38.3636 -85.6753 244° Southwest 203 234 3,000  Level FAA TRACON SMA TRACON (SMA)
10:10AM 38.3544 -85.6906 233° Southwest 183 211 3,000  Level FAA TRACON SMA TRACON (SMA)
10:10AM 38.3436 -85.7081 232° Southwest 165 190 3,000  Level FAA TRACON SMA TRACON (SMA)
10:11AM 38.3353 -85.7203 229° Southwest 152 175 3,000  Level FAA TRACON SMA TRACON (SMA)
10:11AM 38.3261 -85.7311 223° Southwest 145 167 3,000 -360 Level FAA TRACON SMA TRACON (SMA)
10:11AM 38.3147 -85.7442 222° Southwest 143 165 2,800 -600 Descending FAA TRACON SMA TRACON (SMA)
10:12AM 38.3053 -85.7542 220° Southwest 145 167 2,600 -600 Descending FAA TRACON SMA TRACON (SMA)
10:12AM 38.2942 -85.7614 207° Southwest 148 170 2,400 -600 Descending FAA TRACON SMA TRACON (SMA)
10:12AM 38.2789 -85.7617 181° South 145 167 2,200 -480 Descending FAA TRACON SMA TRACON (SMA)
10:13AM 38.2669 -85.7586 169° South 141 162 2,100 -480 Descending FAA TRACON SMA TRACON (SMA)
10:13AM 38.2558 -85.7553 167° South 135 155 1,900 -780 Descending FAA TRACON SMA TRACON (SMA)
10:13AM 38.2417 -85.7503 165° South 137 158 1,600 -780 Descending FAA TRACON SMA TRACON (SMA)
10:14AM 38.2303 -85.7464 165° South 138 159 1,400 -780 Descending FAA TRACON SMA TRACON (SMA)
10:14AM 38.2156 -85.7411 164° South 140 161 1,100 -780 Descending FAA TRACON SMA TRACON (SMA)
10:14AM 38.2042 -85.7372 165° South 140 161 900 -600 Descending FAA TRACON SMA TRACON (SMA)
10:15AM 38.1928 -85.7333 165° South 138 159 700 -600 Descending FAA TRACON SMA TRACON (SMA)
10:17AM 38.1741 -85.7365 171° South  Level Estimated